sensor_id;sensor_type;location;lat;lon;timestamp;P1;durP1;ratioP1;P2;durP2;ratioP2
19183;SDS011;9724;51.194;6.856;2023-10-08T00:01:37;10.10;;;4.33;;
19183;SDS011;9724;51.194;6.856;2023-10-08T00:04:08;8.10;;;4.50;;
19183;SDS011;9724;51.194;6.856;2023-10-08T00:06:36;8.67;;;3.63;;
19183;SDS011;9724;51.194;6.856;2023-10-08T00:09:04;5.90;;;3.60;;
19183;SDS011;9724;51.194;6.856;2023-10-08T00:11:34;9.47;;;4.07;;
19183;SDS011;9724;51.194;6.856;2023-10-08T00:14:01;10.07;;;4.00;;
19183;SDS011;9724;51.194;6.856;2023-10-08T00:16:30;10.80;;;4.00;;
19183;SDS011;9724;51.194;6.856;2023-10-08T00:18:59;10.33;;;3.70;;
19183;SDS011;9724;51.194;6.856;2023-10-08T00:21:33;10.97;;;3.80;;
19183;SDS011;9724;51.194;6.856;2023-10-08T00:24:00;7.27;;;4.07;;
19183;SDS011;9724;51.194;6.856;2023-10-08T00:26:31;8.63;;;4.20;;
19183;SDS011;9724;51.194;6.856;2023-10-08T00:28:59;6.07;;;3.93;;
19183;SDS011;9724;51.194;6.856;2023-10-08T00:31:26;8.13;;;4.50;;
19183;SDS011;9724;51.194;6.856;2023-10-08T00:33:56;14.97;;;3.93;;
19183;SDS011;9724;51.194;6.856;2023-10-08T00:36:22;6.03;;;3.80;;
19183;SDS011;9724;51.194;6.856;2023-10-08T00:38:50;7.77;;;3.73;;
19183;SDS011;9724;51.194;6.856;2023-10-08T00:41:19;6.13;;;3.73;;
19183;SDS011;9724;51.194;6.856;2023-10-08T00:43:47;7.87;;;3.90;;
19183;SDS011;9724;51.194;6.856;2023-10-08T00:46:14;9.87;;;4.17;;
19183;SDS011;9724;51.194;6.856;2023-10-08T00:48:47;9.17;;;4.40;;
19183;SDS011;9724;51.194;6.856;2023-10-08T00:51:14;11.13;;;4.60;;
19183;SDS011;9724;51.194;6.856;2023-10-08T00:53:54;10.83;;;3.63;;
19183;SDS011;9724;51.194;6.856;2023-10-08T00:56:25;6.60;;;4.10;;
19183;SDS011;9724;51.194;6.856;2023-10-08T00:59:09;9.57;;;4.27;;
19183;SDS011;9724;51.194;6.856;2023-10-08T01:01:38;8.10;;;4.07;;
19183;SDS011;9724;51.194;6.856;2023-10-08T01:04:05;7.77;;;4.00;;
19183;SDS011;9724;51.194;6.856;2023-10-08T01:06:37;6.17;;;4.10;;
19183;SDS011;9724;51.194;6.856;2023-10-08T01:09:05;8.33;;;4.23;;
19183;SDS011;9724;51.194;6.856;2023-10-08T01:11:43;7.87;;;3.60;;
19183;SDS011;9724;51.194;6.856;2023-10-08T01:14:14;7.23;;;3.90;;
19183;SDS011;9724;51.194;6.856;2023-10-08T01:16:41;7.50;;;3.73;;
19183;SDS011;9724;51.194;6.856;2023-10-08T01:19:12;8.77;;;4.33;;
19183;SDS011;9724;51.194;6.856;2023-10-08T01:21:45;12.43;;;3.90;;
19183;SDS011;9724;51.194;6.856;2023-10-08T01:24:13;7.87;;;4.00;;
19183;SDS011;9724;51.194;6.856;2023-10-08T01:26:42;10.83;;;4.13;;
19183;SDS011;9724;51.194;6.856;2023-10-08T01:29:10;9.37;;;4.33;;
19183;SDS011;9724;51.194;6.856;2023-10-08T01:31:44;12.03;;;3.97;;
19183;SDS011;9724;51.194;6.856;2023-10-08T01:34:11;9.00;;;4.20;;
19183;SDS011;9724;51.194;6.856;2023-10-08T01:36:41;6.23;;;3.87;;
19183;SDS011;9724;51.194;6.856;2023-10-08T01:39:09;8.27;;;4.30;;
19183;SDS011;9724;51.194;6.856;2023-10-08T01:41:42;6.20;;;4.00;;
19183;SDS011;9724;51.194;6.856;2023-10-08T01:44:09;7.20;;;4.00;;
19183;SDS011;9724;51.194;6.856;2023-10-08T01:46:35;5.90;;;4.17;;
19183;SDS011;9724;51.194;6.856;2023-10-08T01:49:03;6.90;;;4.33;;
19183;SDS011;9724;51.194;6.856;2023-10-08T01:51:34;12.43;;;4.00;;
19183;SDS011;9724;51.194;6.856;2023-10-08T01:54:04;8.80;;;4.10;;
19183;SDS011;9724;51.194;6.856;2023-10-08T01:56:37;8.93;;;4.67;;
19183;SDS011;9724;51.194;6.856;2023-10-08T01:59:07;6.63;;;3.57;;
19183;SDS011;9724;51.194;6.856;2023-10-08T02:01:35;5.90;;;3.90;;
19183;SDS011;9724;51.194;6.856;2023-10-08T02:04:04;8.77;;;4.10;;
19183;SDS011;9724;51.194;6.856;2023-10-08T02:06:32;8.23;;;4.33;;
19183;SDS011;9724;51.194;6.856;2023-10-08T02:08:58;10.47;;;4.53;;
19183;SDS011;9724;51.194;6.856;2023-10-08T02:11:24;7.47;;;4.37;;
19183;SDS011;9724;51.194;6.856;2023-10-08T02:13:53;11.47;;;4.83;;
19183;SDS011;9724;51.194;6.856;2023-10-08T02:16:20;11.33;;;4.33;;
19183;SDS011;9724;51.194;6.856;2023-10-08T02:18:48;9.03;;;4.30;;
19183;SDS011;9724;51.194;6.856;2023-10-08T02:21:17;12.87;;;4.40;;
19183;SDS011;9724;51.194;6.856;2023-10-08T02:23:43;9.47;;;4.90;;
19183;SDS011;9724;51.194;6.856;2023-10-08T02:26:10;7.47;;;4.17;;
19183;SDS011;9724;51.194;6.856;2023-10-08T02:28:36;10.47;;;4.03;;
19183;SDS011;9724;51.194;6.856;2023-10-08T02:31:04;8.23;;;4.50;;
19183;SDS011;9724;51.194;6.856;2023-10-08T02:33:31;6.90;;;4.20;;
19183;SDS011;9724;51.194;6.856;2023-10-08T02:35:57;10.33;;;4.23;;
19183;SDS011;9724;51.194;6.856;2023-10-08T02:38:26;10.07;;;4.40;;
19183;SDS011;9724;51.194;6.856;2023-10-08T02:40:54;10.60;;;4.73;;
19183;SDS011;9724;51.194;6.856;2023-10-08T02:43:22;8.23;;;4.37;;
19183;SDS011;9724;51.194;6.856;2023-10-08T02:45:48;7.10;;;4.30;;
19183;SDS011;9724;51.194;6.856;2023-10-08T02:48:15;7.90;;;4.20;;
19183;SDS011;9724;51.194;6.856;2023-10-08T02:50:43;5.57;;;3.97;;
19183;SDS011;9724;51.194;6.856;2023-10-08T02:53:10;13.77;;;4.47;;
19183;SDS011;9724;51.194;6.856;2023-10-08T02:55:37;10.87;;;4.40;;
19183;SDS011;9724;51.194;6.856;2023-10-08T02:58:10;6.97;;;4.50;;
19183;SDS011;9724;51.194;6.856;2023-10-08T03:00:40;6.37;;;4.30;;
19183;SDS011;9724;51.194;6.856;2023-10-08T03:03:07;6.40;;;4.17;;
19183;SDS011;9724;51.194;6.856;2023-10-08T03:05:41;10.03;;;3.80;;
19183;SDS011;9724;51.194;6.856;2023-10-08T03:08:13;10.17;;;4.73;;
19183;SDS011;9724;51.194;6.856;2023-10-08T03:10:39;6.23;;;4.07;;
19183;SDS011;9724;51.194;6.856;2023-10-08T03:13:07;7.23;;;3.87;;
19183;SDS011;9724;51.194;6.856;2023-10-08T03:15:35;7.47;;;4.00;;
19183;SDS011;9724;51.194;6.856;2023-10-08T03:18:12;9.13;;;4.50;;
19183;SDS011;9724;51.194;6.856;2023-10-08T03:20:41;9.00;;;4.63;;
19183;SDS011;9724;51.194;6.856;2023-10-08T03:23:11;8.53;;;4.43;;
19183;SDS011;9724;51.194;6.856;2023-10-08T03:25:50;11.23;;;4.73;;
19183;SDS011;9724;51.194;6.856;2023-10-08T03:28:22;6.67;;;4.27;;
19183;SDS011;9724;51.194;6.856;2023-10-08T03:30:51;8.90;;;4.70;;
19183;SDS011;9724;51.194;6.856;2023-10-08T03:33:17;7.33;;;4.30;;
19183;SDS011;9724;51.194;6.856;2023-10-08T03:35:49;9.77;;;4.03;;
19183;SDS011;9724;51.194;6.856;2023-10-08T03:38:20;6.37;;;4.07;;
19183;SDS011;9724;51.194;6.856;2023-10-08T03:40:54;8.33;;;4.40;;
19183;SDS011;9724;51.194;6.856;2023-10-08T03:43:27;11.77;;;4.37;;
19183;SDS011;9724;51.194;6.856;2023-10-08T03:46:00;6.57;;;4.10;;
19183;SDS011;9724;51.194;6.856;2023-10-08T03:48:31;6.33;;;4.23;;
19183;SDS011;9724;51.194;6.856;2023-10-08T03:51:04;10.07;;;4.50;;
19183;SDS011;9724;51.194;6.856;2023-10-08T03:53:33;10.17;;;4.73;;
19183;SDS011;9724;51.194;6.856;2023-10-08T03:56:03;13.67;;;4.43;;
19183;SDS011;9724;51.194;6.856;2023-10-08T03:58:32;8.73;;;4.30;;
19183;SDS011;9724;51.194;6.856;2023-10-08T04:01:06;11.67;;;4.37;;
19183;SDS011;9724;51.194;6.856;2023-10-08T04:03:34;9.17;;;4.47;;
19183;SDS011;9724;51.194;6.856;2023-10-08T04:06:23;12.00;;;4.70;;
19183;SDS011;9724;51.194;6.856;2023-10-08T04:08:56;9.30;;;4.17;;
19183;SDS011;9724;51.194;6.856;2023-10-08T04:11:37;11.17;;;3.90;;
19183;SDS011;9724;51.194;6.856;2023-10-08T04:14:17;17.40;;;3.97;;
19183;SDS011;9724;51.194;6.856;2023-10-08T04:16:44;9.93;;;3.83;;
19183;SDS011;9724;51.194;6.856;2023-10-08T04:19:11;10.13;;;4.20;;
19183;SDS011;9724;51.194;6.856;2023-10-08T04:21:38;8.87;;;3.90;;
19183;SDS011;9724;51.194;6.856;2023-10-08T04:24:09;11.97;;;4.80;;
19183;SDS011;9724;51.194;6.856;2023-10-08T04:26:36;11.10;;;4.17;;
19183;SDS011;9724;51.194;6.856;2023-10-08T04:29:05;15.80;;;4.47;;
19183;SDS011;9724;51.194;6.856;2023-10-08T04:31:33;11.37;;;4.20;;
19183;SDS011;9724;51.194;6.856;2023-10-08T04:34:09;7.03;;;4.30;;
19183;SDS011;9724;51.194;6.856;2023-10-08T04:36:41;10.47;;;4.33;;
19183;SDS011;9724;51.194;6.856;2023-10-08T04:39:07;8.07;;;3.90;;
19183;SDS011;9724;51.194;6.856;2023-10-08T04:41:39;6.47;;;3.90;;
19183;SDS011;9724;51.194;6.856;2023-10-08T04:44:08;12.20;;;4.53;;
19183;SDS011;9724;51.194;6.856;2023-10-08T04:46:41;7.23;;;4.10;;
19183;SDS011;9724;51.194;6.856;2023-10-08T04:49:14;6.37;;;4.00;;
19183;SDS011;9724;51.194;6.856;2023-10-08T04:51:53;12.43;;;4.37;;
19183;SDS011;9724;51.194;6.856;2023-10-08T04:54:24;9.07;;;3.97;;
19183;SDS011;9724;51.194;6.856;2023-10-08T04:56:56;7.23;;;3.80;;
19183;SDS011;9724;51.194;6.856;2023-10-08T04:59:24;8.60;;;4.27;;
19183;SDS011;9724;51.194;6.856;2023-10-08T05:01:58;9.60;;;4.67;;
19183;SDS011;9724;51.194;6.856;2023-10-08T05:04:44;11.37;;;4.30;;
19183;SDS011;9724;51.194;6.856;2023-10-08T05:07:22;9.60;;;4.43;;
19183;SDS011;9724;51.194;6.856;2023-10-08T05:10:04;15.83;;;4.30;;
19183;SDS011;9724;51.194;6.856;2023-10-08T05:12:57;7.80;;;3.80;;
19183;SDS011;9724;51.194;6.856;2023-10-08T05:15:40;8.07;;;4.30;;
19183;SDS011;9724;51.194;6.856;2023-10-08T05:18:12;7.80;;;4.20;;
19183;SDS011;9724;51.194;6.856;2023-10-08T05:20:44;11.20;;;4.03;;
19183;SDS011;9724;51.194;6.856;2023-10-08T05:23:25;7.13;;;3.80;;
19183;SDS011;9724;51.194;6.856;2023-10-08T05:26:22;10.63;;;3.73;;
19183;SDS011;9724;51.194;6.856;2023-10-08T05:29:07;11.37;;;4.03;;
19183;SDS011;9724;51.194;6.856;2023-10-08T05:31:49;12.27;;;4.50;;
19183;SDS011;9724;51.194;6.856;2023-10-08T05:34:36;18.10;;;4.20;;
19183;SDS011;9724;51.194;6.856;2023-10-08T05:37:09;7.10;;;3.97;;
19183;SDS011;9724;51.194;6.856;2023-10-08T05:39:58;7.00;;;4.10;;
19183;SDS011;9724;51.194;6.856;2023-10-08T05:42:38;11.10;;;4.17;;
19183;SDS011;9724;51.194;6.856;2023-10-08T05:45:12;8.83;;;4.07;;
19183;SDS011;9724;51.194;6.856;2023-10-08T05:47:57;8.87;;;3.97;;
19183;SDS011;9724;51.194;6.856;2023-10-08T05:50:39;9.63;;;3.90;;
19183;SDS011;9724;51.194;6.856;2023-10-08T05:53:08;12.47;;;3.93;;
19183;SDS011;9724;51.194;6.856;2023-10-08T05:55:45;9.13;;;4.00;;
19183;SDS011;9724;51.194;6.856;2023-10-08T05:58:13;6.70;;;4.20;;
19183;SDS011;9724;51.194;6.856;2023-10-08T06:00:51;10.90;;;4.50;;
19183;SDS011;9724;51.194;6.856;2023-10-08T06:03:34;12.27;;;5.07;;
19183;SDS011;9724;51.194;6.856;2023-10-08T06:06:03;10.03;;;3.77;;
19183;SDS011;9724;51.194;6.856;2023-10-08T06:08:48;16.47;;;5.10;;
19183;SDS011;9724;51.194;6.856;2023-10-08T06:11:17;11.13;;;4.60;;
19183;SDS011;9724;51.194;6.856;2023-10-08T06:14:02;13.10;;;4.80;;
19183;SDS011;9724;51.194;6.856;2023-10-08T06:16:39;9.23;;;4.20;;
19183;SDS011;9724;51.194;6.856;2023-10-08T06:19:10;11.47;;;4.70;;
19183;SDS011;9724;51.194;6.856;2023-10-08T06:21:38;12.77;;;4.43;;
19183;SDS011;9724;51.194;6.856;2023-10-08T06:24:05;8.80;;;4.50;;
19183;SDS011;9724;51.194;6.856;2023-10-08T06:26:35;11.67;;;4.40;;
19183;SDS011;9724;51.194;6.856;2023-10-08T06:29:10;10.70;;;4.80;;
19183;SDS011;9724;51.194;6.856;2023-10-08T06:31:45;10.50;;;4.90;;
19183;SDS011;9724;51.194;6.856;2023-10-08T06:34:17;11.00;;;4.33;;
19183;SDS011;9724;51.194;6.856;2023-10-08T06:36:47;15.63;;;4.60;;
19183;SDS011;9724;51.194;6.856;2023-10-08T06:39:13;13.33;;;5.03;;
19183;SDS011;9724;51.194;6.856;2023-10-08T06:41:44;11.50;;;4.43;;
19183;SDS011;9724;51.194;6.856;2023-10-08T06:44:15;12.00;;;4.27;;
19183;SDS011;9724;51.194;6.856;2023-10-08T06:46:41;9.90;;;4.63;;
19183;SDS011;9724;51.194;6.856;2023-10-08T06:49:08;13.63;;;4.37;;
19183;SDS011;9724;51.194;6.856;2023-10-08T06:51:38;10.60;;;4.37;;
19183;SDS011;9724;51.194;6.856;2023-10-08T06:54:07;12.63;;;4.57;;
19183;SDS011;9724;51.194;6.856;2023-10-08T06:56:36;14.87;;;4.87;;
19183;SDS011;9724;51.194;6.856;2023-10-08T06:59:05;12.10;;;4.87;;
19183;SDS011;9724;51.194;6.856;2023-10-08T07:01:36;9.30;;;4.33;;
19183;SDS011;9724;51.194;6.856;2023-10-08T07:04:05;10.13;;;4.30;;
19183;SDS011;9724;51.194;6.856;2023-10-08T07:06:39;9.57;;;4.13;;
19183;SDS011;9724;51.194;6.856;2023-10-08T07:09:07;11.17;;;4.63;;
19183;SDS011;9724;51.194;6.856;2023-10-08T07:11:49;16.63;;;4.00;;
19183;SDS011;9724;51.194;6.856;2023-10-08T07:14:22;13.03;;;3.43;;
19183;SDS011;9724;51.194;6.856;2023-10-08T07:16:53;15.17;;;5.20;;
19183;SDS011;9724;51.194;6.856;2023-10-08T07:19:20;16.87;;;5.10;;
19183;SDS011;9724;51.194;6.856;2023-10-08T07:21:50;8.83;;;4.40;;
19183;SDS011;9724;51.194;6.856;2023-10-08T07:24:20;7.07;;;4.43;;
19183;SDS011;9724;51.194;6.856;2023-10-08T07:26:47;8.33;;;4.50;;
19183;SDS011;9724;51.194;6.856;2023-10-08T07:29:15;18.43;;;4.73;;
19183;SDS011;9724;51.194;6.856;2023-10-08T07:31:42;9.43;;;4.63;;
19183;SDS011;9724;51.194;6.856;2023-10-08T07:34:15;10.40;;;4.53;;
19183;SDS011;9724;51.194;6.856;2023-10-08T07:36:44;11.27;;;4.63;;
19183;SDS011;9724;51.194;6.856;2023-10-08T07:39:12;8.80;;;4.60;;
19183;SDS011;9724;51.194;6.856;2023-10-08T07:41:50;13.70;;;4.43;;
19183;SDS011;9724;51.194;6.856;2023-10-08T07:44:17;9.33;;;4.33;;
19183;SDS011;9724;51.194;6.856;2023-10-08T07:46:46;12.57;;;5.00;;
19183;SDS011;9724;51.194;6.856;2023-10-08T07:49:13;10.57;;;4.43;;
19183;SDS011;9724;51.194;6.856;2023-10-08T07:51:40;12.03;;;5.17;;
19183;SDS011;9724;51.194;6.856;2023-10-08T07:54:06;13.93;;;4.70;;
19183;SDS011;9724;51.194;6.856;2023-10-08T07:56:35;15.13;;;5.20;;
19183;SDS011;9724;51.194;6.856;2023-10-08T07:59:03;13.57;;;4.67;;
19183;SDS011;9724;51.194;6.856;2023-10-08T08:01:34;9.90;;;5.43;;
19183;SDS011;9724;51.194;6.856;2023-10-08T08:04:00;11.13;;;4.73;;
19183;SDS011;9724;51.194;6.856;2023-10-08T08:06:26;8.00;;;4.53;;
19183;SDS011;9724;51.194;6.856;2023-10-08T08:08:53;12.33;;;4.50;;
19183;SDS011;9724;51.194;6.856;2023-10-08T08:11:20;16.03;;;5.07;;
19183;SDS011;9724;51.194;6.856;2023-10-08T08:13:51;16.13;;;5.17;;
19183;SDS011;9724;51.194;6.856;2023-10-08T08:16:18;11.83;;;5.20;;
19183;SDS011;9724;51.194;6.856;2023-10-08T08:18:46;17.90;;;5.40;;
19183;SDS011;9724;51.194;6.856;2023-10-08T08:21:14;9.17;;;5.03;;
19183;SDS011;9724;51.194;6.856;2023-10-08T08:23:41;12.60;;;4.83;;
19183;SDS011;9724;51.194;6.856;2023-10-08T08:26:14;15.33;;;5.07;;
19183;SDS011;9724;51.194;6.856;2023-10-08T08:28:53;15.77;;;5.23;;
19183;SDS011;9724;51.194;6.856;2023-10-08T08:31:20;15.57;;;5.20;;
19183;SDS011;9724;51.194;6.856;2023-10-08T08:33:46;15.93;;;5.00;;
19183;SDS011;9724;51.194;6.856;2023-10-08T08:36:19;13.07;;;5.00;;
19183;SDS011;9724;51.194;6.856;2023-10-08T08:38:46;12.93;;;4.97;;
19183;SDS011;9724;51.194;6.856;2023-10-08T08:41:14;11.63;;;5.10;;
19183;SDS011;9724;51.194;6.856;2023-10-08T08:43:43;14.70;;;5.60;;
19183;SDS011;9724;51.194;6.856;2023-10-08T08:46:10;14.13;;;5.10;;
19183;SDS011;9724;51.194;6.856;2023-10-08T08:48:39;15.53;;;5.47;;
19183;SDS011;9724;51.194;6.856;2023-10-08T08:51:07;11.90;;;5.00;;
19183;SDS011;9724;51.194;6.856;2023-10-08T08:53:34;14.33;;;5.37;;
19183;SDS011;9724;51.194;6.856;2023-10-08T08:56:02;19.13;;;5.60;;
19183;SDS011;9724;51.194;6.856;2023-10-08T08:58:30;16.53;;;5.67;;
19183;SDS011;9724;51.194;6.856;2023-10-08T09:00:58;15.90;;;6.33;;
19183;SDS011;9724;51.194;6.856;2023-10-08T09:03:25;22.87;;;6.37;;
19183;SDS011;9724;51.194;6.856;2023-10-08T09:05:56;20.37;;;5.93;;
19183;SDS011;9724;51.194;6.856;2023-10-08T09:08:22;23.60;;;7.13;;
19183;SDS011;9724;51.194;6.856;2023-10-08T09:10:53;23.63;;;7.40;;
19183;SDS011;9724;51.194;6.856;2023-10-08T09:13:27;17.30;;;7.20;;
19183;SDS011;9724;51.194;6.856;2023-10-08T09:15:57;22.37;;;7.03;;
19183;SDS011;9724;51.194;6.856;2023-10-08T09:18:23;23.63;;;7.40;;
19183;SDS011;9724;51.194;6.856;2023-10-08T09:20:50;28.50;;;7.00;;
19183;SDS011;9724;51.194;6.856;2023-10-08T09:23:16;23.57;;;7.37;;
19183;SDS011;9724;51.194;6.856;2023-10-08T09:25:44;24.67;;;7.73;;
19183;SDS011;9724;51.194;6.856;2023-10-08T09:28:15;21.07;;;7.60;;
19183;SDS011;9724;51.194;6.856;2023-10-08T09:30:42;18.17;;;7.63;;
19183;SDS011;9724;51.194;6.856;2023-10-08T09:33:11;23.73;;;6.60;;
19183;SDS011;9724;51.194;6.856;2023-10-08T09:35:38;22.00;;;7.40;;
19183;SDS011;9724;51.194;6.856;2023-10-08T09:38:05;24.23;;;6.97;;
19183;SDS011;9724;51.194;6.856;2023-10-08T09:40:34;28.00;;;8.03;;
19183;SDS011;9724;51.194;6.856;2023-10-08T09:43:01;18.07;;;7.87;;
19183;SDS011;9724;51.194;6.856;2023-10-08T09:45:29;32.27;;;8.47;;
19183;SDS011;9724;51.194;6.856;2023-10-08T09:47:56;26.67;;;8.50;;
19183;SDS011;9724;51.194;6.856;2023-10-08T09:50:26;27.80;;;9.23;;
19183;SDS011;9724;51.194;6.856;2023-10-08T09:52:55;20.80;;;8.97;;
19183;SDS011;9724;51.194;6.856;2023-10-08T09:55:25;26.27;;;9.50;;
19183;SDS011;9724;51.194;6.856;2023-10-08T09:57:53;28.10;;;9.10;;
19183;SDS011;9724;51.194;6.856;2023-10-08T10:00:21;30.30;;;9.33;;
19183;SDS011;9724;51.194;6.856;2023-10-08T10:02:56;23.23;;;8.13;;
19183;SDS011;9724;51.194;6.856;2023-10-08T10:05:27;29.23;;;8.40;;
19183;SDS011;9724;51.194;6.856;2023-10-08T10:07:55;36.57;;;9.90;;
19183;SDS011;9724;51.194;6.856;2023-10-08T10:10:25;35.47;;;9.60;;
19183;SDS011;9724;51.194;6.856;2023-10-08T10:12:52;32.40;;;10.47;;
19183;SDS011;9724;51.194;6.856;2023-10-08T10:15:19;36.17;;;10.47;;
19183;SDS011;9724;51.194;6.856;2023-10-08T10:17:53;34.50;;;9.90;;
19183;SDS011;9724;51.194;6.856;2023-10-08T10:20:21;36.30;;;10.33;;
19183;SDS011;9724;51.194;6.856;2023-10-08T10:22:48;31.23;;;9.13;;
19183;SDS011;9724;51.194;6.856;2023-10-08T10:25:15;30.70;;;9.20;;
19183;SDS011;9724;51.194;6.856;2023-10-08T10:27:51;33.77;;;9.57;;
19183;SDS011;9724;51.194;6.856;2023-10-08T10:30:58;37.27;;;10.00;;
19183;SDS011;9724;51.194;6.856;2023-10-08T10:33:29;29.60;;;10.13;;
19183;SDS011;9724;51.194;6.856;2023-10-08T10:35:56;37.40;;;9.53;;
19183;SDS011;9724;51.194;6.856;2023-10-08T10:38:24;27.00;;;9.93;;
19183;SDS011;9724;51.194;6.856;2023-10-08T10:40:52;32.23;;;9.83;;
19183;SDS011;9724;51.194;6.856;2023-10-08T10:43:23;26.40;;;9.30;;
19183;SDS011;9724;51.194;6.856;2023-10-08T10:45:58;30.13;;;9.80;;
19183;SDS011;9724;51.194;6.856;2023-10-08T10:48:26;37.67;;;9.83;;
19183;SDS011;9724;51.194;6.856;2023-10-08T10:51:00;32.47;;;10.37;;
19183;SDS011;9724;51.194;6.856;2023-10-08T10:53:37;37.57;;;11.57;;
19183;SDS011;9724;51.194;6.856;2023-10-08T10:56:13;31.93;;;10.10;;
19183;SDS011;9724;51.194;6.856;2023-10-08T10:58:45;34.70;;;10.20;;
19183;SDS011;9724;51.194;6.856;2023-10-08T11:01:14;32.73;;;10.20;;
19183;SDS011;9724;51.194;6.856;2023-10-08T11:03:49;33.83;;;10.30;;
19183;SDS011;9724;51.194;6.856;2023-10-08T11:06:17;32.60;;;10.70;;
19183;SDS011;9724;51.194;6.856;2023-10-08T11:08:49;35.47;;;11.07;;
19183;SDS011;9724;51.194;6.856;2023-10-08T11:11:16;32.23;;;10.20;;
19183;SDS011;9724;51.194;6.856;2023-10-08T11:13:43;37.87;;;11.40;;
19183;SDS011;9724;51.194;6.856;2023-10-08T11:16:15;39.47;;;11.60;;
19183;SDS011;9724;51.194;6.856;2023-10-08T11:18:43;38.10;;;11.03;;
19183;SDS011;9724;51.194;6.856;2023-10-08T11:21:10;34.97;;;11.23;;
19183;SDS011;9724;51.194;6.856;2023-10-08T11:23:41;40.13;;;11.33;;
19183;SDS011;9724;51.194;6.856;2023-10-08T11:26:09;43.87;;;11.73;;
19183;SDS011;9724;51.194;6.856;2023-10-08T11:28:36;39.17;;;12.03;;
19183;SDS011;9724;51.194;6.856;2023-10-08T11:31:07;34.73;;;11.47;;
19183;SDS011;9724;51.194;6.856;2023-10-08T11:33:36;42.97;;;11.93;;
19183;SDS011;9724;51.194;6.856;2023-10-08T11:36:03;39.80;;;13.10;;
19183;SDS011;9724;51.194;6.856;2023-10-08T11:38:38;41.07;;;12.80;;
19183;SDS011;9724;51.194;6.856;2023-10-08T11:41:12;42.13;;;14.13;;
19183;SDS011;9724;51.194;6.856;2023-10-08T11:43:49;44.07;;;12.77;;
19183;SDS011;9724;51.194;6.856;2023-10-08T11:46:22;39.43;;;14.00;;
19183;SDS011;9724;51.194;6.856;2023-10-08T11:48:52;48.67;;;14.13;;
19183;SDS011;9724;51.194;6.856;2023-10-08T11:51:18;43.67;;;13.40;;
19183;SDS011;9724;51.194;6.856;2023-10-08T11:53:49;47.23;;;13.73;;
19183;SDS011;9724;51.194;6.856;2023-10-08T11:56:17;38.57;;;13.60;;
19183;SDS011;9724;51.194;6.856;2023-10-08T11:58:47;36.23;;;12.67;;
19183;SDS011;9724;51.194;6.856;2023-10-08T12:01:14;49.37;;;12.63;;
19183;SDS011;9724;51.194;6.856;2023-10-08T12:03:41;38.67;;;12.27;;
19183;SDS011;9724;51.194;6.856;2023-10-08T12:06:09;43.00;;;13.87;;
19183;SDS011;9724;51.194;6.856;2023-10-08T12:08:41;42.67;;;13.07;;
19183;SDS011;9724;51.194;6.856;2023-10-08T12:11:11;48.33;;;13.53;;
19183;SDS011;9724;51.194;6.856;2023-10-08T12:13:39;42.57;;;13.23;;
19183;SDS011;9724;51.194;6.856;2023-10-08T12:16:10;34.73;;;13.47;;
19183;SDS011;9724;51.194;6.856;2023-10-08T12:18:46;39.70;;;12.20;;
19183;SDS011;9724;51.194;6.856;2023-10-08T12:21:15;43.83;;;13.47;;
19183;SDS011;9724;51.194;6.856;2023-10-08T12:23:41;37.60;;;12.30;;
19183;SDS011;9724;51.194;6.856;2023-10-08T12:26:09;39.87;;;12.43;;
19183;SDS011;9724;51.194;6.856;2023-10-08T12:28:35;36.50;;;13.43;;
19183;SDS011;9724;51.194;6.856;2023-10-08T12:31:03;38.77;;;12.00;;
19183;SDS011;9724;51.194;6.856;2023-10-08T12:33:29;39.57;;;12.87;;
19183;SDS011;9724;51.194;6.856;2023-10-08T12:35:57;33.27;;;11.37;;
19183;SDS011;9724;51.194;6.856;2023-10-08T12:38:23;38.17;;;12.37;;
19183;SDS011;9724;51.194;6.856;2023-10-08T12:40:53;35.83;;;12.83;;
19183;SDS011;9724;51.194;6.856;2023-10-08T12:43:19;34.47;;;12.40;;
19183;SDS011;9724;51.194;6.856;2023-10-08T12:45:46;42.07;;;13.20;;
19183;SDS011;9724;51.194;6.856;2023-10-08T12:48:19;43.50;;;13.40;;
19183;SDS011;9724;51.194;6.856;2023-10-08T12:50:46;37.60;;;13.17;;
19183;SDS011;9724;51.194;6.856;2023-10-08T12:53:19;30.60;;;11.30;;
19183;SDS011;9724;51.194;6.856;2023-10-08T12:55:50;37.27;;;13.60;;
19183;SDS011;9724;51.194;6.856;2023-10-08T12:58:19;35.40;;;13.40;;
19183;SDS011;9724;51.194;6.856;2023-10-08T13:00:49;37.73;;;13.07;;
19183;SDS011;9724;51.194;6.856;2023-10-08T13:03:24;42.33;;;13.23;;
19183;SDS011;9724;51.194;6.856;2023-10-08T13:05:51;42.63;;;12.77;;
19183;SDS011;9724;51.194;6.856;2023-10-08T13:08:18;35.57;;;11.57;;
19183;SDS011;9724;51.194;6.856;2023-10-08T13:10:45;34.40;;;12.33;;
19183;SDS011;9724;51.194;6.856;2023-10-08T13:13:11;39.63;;;11.90;;
19183;SDS011;9724;51.194;6.856;2023-10-08T13:15:38;42.33;;;12.53;;
19183;SDS011;9724;51.194;6.856;2023-10-08T13:18:04;43.03;;;12.87;;
19183;SDS011;9724;51.194;6.856;2023-10-08T13:20:32;33.27;;;11.73;;
19183;SDS011;9724;51.194;6.856;2023-10-08T13:22:59;34.97;;;12.57;;
19183;SDS011;9724;51.194;6.856;2023-10-08T13:25:26;37.37;;;12.10;;
19183;SDS011;9724;51.194;6.856;2023-10-08T13:27:52;36.20;;;11.47;;
19183;SDS011;9724;51.194;6.856;2023-10-08T13:30:20;42.27;;;12.17;;
19183;SDS011;9724;51.194;6.856;2023-10-08T13:32:46;40.73;;;12.90;;
19183;SDS011;9724;51.194;6.856;2023-10-08T13:35:13;37.03;;;11.57;;
19183;SDS011;9724;51.194;6.856;2023-10-08T13:37:40;42.83;;;13.23;;
19183;SDS011;9724;51.194;6.856;2023-10-08T13:40:06;40.97;;;12.40;;
19183;SDS011;9724;51.194;6.856;2023-10-08T13:42:34;32.60;;;12.00;;
19183;SDS011;9724;51.194;6.856;2023-10-08T13:45:00;39.13;;;12.23;;
19183;SDS011;9724;51.194;6.856;2023-10-08T13:47:33;31.97;;;11.57;;
19183;SDS011;9724;51.194;6.856;2023-10-08T13:50:00;37.10;;;13.10;;
19183;SDS011;9724;51.194;6.856;2023-10-08T13:52:28;35.87;;;11.30;;
19183;SDS011;9724;51.194;6.856;2023-10-08T13:54:55;35.20;;;11.70;;
19183;SDS011;9724;51.194;6.856;2023-10-08T13:57:22;34.47;;;12.93;;
19183;SDS011;9724;51.194;6.856;2023-10-08T13:59:52;43.40;;;11.83;;
19183;SDS011;9724;51.194;6.856;2023-10-08T14:02:18;33.50;;;12.63;;
19183;SDS011;9724;51.194;6.856;2023-10-08T14:04:47;28.67;;;11.20;;
19183;SDS011;9724;51.194;6.856;2023-10-08T14:07:16;28.87;;;10.97;;
19183;SDS011;9724;51.194;6.856;2023-10-08T14:09:42;41.83;;;11.90;;
19183;SDS011;9724;51.194;6.856;2023-10-08T14:12:11;33.97;;;12.20;;
19183;SDS011;9724;51.194;6.856;2023-10-08T14:14:39;32.53;;;11.63;;
19183;SDS011;9724;51.194;6.856;2023-10-08T14:17:09;28.10;;;11.10;;
19183;SDS011;9724;51.194;6.856;2023-10-08T14:19:40;28.97;;;10.80;;
19183;SDS011;9724;51.194;6.856;2023-10-08T14:22:12;31.63;;;11.60;;
19183;SDS011;9724;51.194;6.856;2023-10-08T14:24:39;38.70;;;11.93;;
19183;SDS011;9724;51.194;6.856;2023-10-08T14:27:06;34.10;;;11.30;;
19183;SDS011;9724;51.194;6.856;2023-10-08T14:29:37;29.60;;;10.13;;
19183;SDS011;9724;51.194;6.856;2023-10-08T14:32:06;30.67;;;10.40;;
19183;SDS011;9724;51.194;6.856;2023-10-08T14:34:34;33.97;;;11.40;;
19183;SDS011;9724;51.194;6.856;2023-10-08T14:37:19;40.67;;;12.23;;
19183;SDS011;9724;51.194;6.856;2023-10-08T14:40:04;38.07;;;11.03;;
19183;SDS011;9724;51.194;6.856;2023-10-08T14:43:01;28.23;;;11.53;;
19183;SDS011;9724;51.194;6.856;2023-10-08T14:45:31;31.10;;;10.60;;
19183;SDS011;9724;51.194;6.856;2023-10-08T14:48:01;23.50;;;10.70;;
19183;SDS011;9724;51.194;6.856;2023-10-08T14:50:27;32.17;;;10.80;;
19183;SDS011;9724;51.194;6.856;2023-10-08T14:52:56;31.20;;;10.83;;
19183;SDS011;9724;51.194;6.856;2023-10-08T14:55:25;28.87;;;10.80;;
19183;SDS011;9724;51.194;6.856;2023-10-08T14:57:52;24.57;;;10.83;;
19183;SDS011;9724;51.194;6.856;2023-10-08T15:00:18;28.97;;;11.63;;
19183;SDS011;9724;51.194;6.856;2023-10-08T15:02:51;33.17;;;11.50;;
19183;SDS011;9724;51.194;6.856;2023-10-08T15:05:19;33.50;;;11.17;;
19183;SDS011;9724;51.194;6.856;2023-10-08T15:07:47;31.80;;;11.23;;